Durango — XCBE9 — position and weather

sailwx.info

Track history (hours):
 
Tides and Currents Weather Stations Pressure Air Temp Water Temp Dewpoint Dewpoint Depression Visibility Wind Speed Wind Dir Waves Ship Positions

Durango

Last reported at 2018-Jun-13 08:37 UTC. Time now 2018-Jun-19 06:47 UTC.
Position N 21°45' W 089°39'.

Length 182 m; draft 8.6 m.

Type: Ship (hazmat cat D). MMSI: 345010002.

Date/timePositionNaut miles runAvg speedWind from/ knotsBaromVisibWave heightAir tempDewpointWater temp
2018-Jun-13 08:37N 21°45' W 089°39'111.6
2018-Jun-13 08:30N 21°44' W 089°41'811.4
2018-Jun-13 07:46N 21°44' W 089°50'311.5
2018-Jun-13 07:30N 21°43' W 089°53'611.4
2018-Jun-13 07:00N 21°42' W 089°59'1011.5
2018-Jun-13 06:09N 21°40' W 090°10'211.6
2018-Jun-13 05:59N 21°40' W 090°12'611.5
2018-Jun-13 05:27N 21°38' W 090°18'511.4
2018-Jun-13 05:00N 21°36' W 090°23'711.2
2018-Jun-13 04:24N 21°35' W 090°30'3711.0
2018-Jun-13 01:04N 21°20' W 091°06'111.4
2018-Jun-13 00:59N 21°19' W 091°07'  
Track history (hours):
 
Tides and Currents Weather Stations Pressure Air Temp Water Temp Dewpoint Dewpoint Depression Visibility Wind Speed Wind Dir Waves Ship Positions

Durango

Last reported at 2018-Jun-13 08:37 UTC. Time now 2018-Jun-19 06:47 UTC.
Position N 21°45' W 089°39'.

Length 182 m; draft 8.6 m.

Type: Ship (hazmat cat D). MMSI: 345010002.

Date/timePositionNaut miles runAvg speedWind from/ knotsBaromVisibWave heightAir tempDewpointWater temp
2018-Jun-13 08:37N 21°45' W 089°39'111.6
2018-Jun-13 08:30N 21°44' W 089°41'811.4
2018-Jun-13 07:46N 21°44' W 089°50'311.5
2018-Jun-13 07:30N 21°43' W 089°53'611.4
2018-Jun-13 07:00N 21°42' W 089°59'1011.5
2018-Jun-13 06:09N 21°40' W 090°10'211.6
2018-Jun-13 05:59N 21°40' W 090°12'611.5
2018-Jun-13 05:27N 21°38' W 090°18'511.4
2018-Jun-13 05:00N 21°36' W 090°23'711.2
2018-Jun-13 04:24N 21°35' W 090°30'3711.0
2018-Jun-13 01:04N 21°20' W 091°06'111.4
2018-Jun-13 00:59N 21°19' W 091°07'  

Dump ship's entire track history